Time;durP1;ratioP1;P1;durP2;ratioP2;P2;SDS_P1;SDS_P2;PMS_P1;PMS_P2;Temp;Humidity;BMP_temperature;BMP_pressure;BME280_temperature;BME280_humidity;BME280_pressure;Samples;Min_cycle;Max_cycle;Signal;HPM_P1;HPM_P2
2023/04/08 00:00:39;;;;;;;1.23;0.50;;;13.00;99.90;;;;;;4979354;28;20203;-89
2023/04/08 00:03:10;;;;;;;0.97;0.50;;;13.30;99.90;;;;;;4994855;28;20233;-89
2023/04/08 00:05:43;;;;;;;1.30;0.50;;;13.40;99.90;;;;;;4997973;28;20206;-89
2023/04/08 00:08:15;;;;;;;0.97;0.50;;;13.40;99.90;;;;;;4997948;28;20575;-89
2023/04/08 00:10:47;;;;;;;0.30;0.30;;;13.60;99.90;;;;;;5002659;28;20647;-89
2023/04/08 00:13:20;;;;;;;0.20;0.20;;;13.60;99.90;;;;;;5006678;28;20210;-89
2023/04/08 00:15:52;;;;;;;0.80;0.47;;;13.70;99.90;;;;;;4997043;28;20222;-89
2023/04/08 00:18:23;;;;;;;0.43;0.40;;;13.80;99.90;;;;;;4996061;28;20210;-89
2023/04/08 00:20:56;;;;;;;1.10;0.43;;;13.60;99.90;;;;;;4998108;28;20628;-89
2023/04/08 00:23:27;;;;;;;0.47;0.30;;;13.20;99.90;;;;;;4998279;28;20210;-89
2023/04/08 00:25:58;;;;;;;0.47;0.40;;;12.80;99.90;;;;;;4998305;28;20202;-89
2023/04/08 00:28:33;;;;;;;0.93;0.37;;;12.60;99.90;;;;;;4998205;28;20662;-89
2023/04/08 00:31:04;;;;;;;2.40;0.50;;;12.50;99.90;;;;;;4997879;28;20213;-89
2023/04/08 00:33:36;;;;;;;0.30;0.30;;;12.50;99.90;;;;;;4998128;28;20213;-89
2023/04/08 00:36:07;;;;;;;1.90;0.40;;;12.40;99.90;;;;;;4997645;28;20260;-89
2023/04/08 00:38:39;;;;;;;1.00;0.50;;;12.40;99.90;;;;;;4995833;28;20210;-89
2023/04/08 00:41:10;;;;;;;0.87;0.57;;;12.50;99.90;;;;;;4998190;28;20863;-88
2023/04/08 00:43:44;;;;;;;1.50;0.40;;;12.50;99.90;;;;;;4997526;28;20210;-88
2023/04/08 00:46:16;;;;;;;2.93;0.60;;;12.40;99.90;;;;;;4989346;28;20210;-89
2023/04/08 00:48:48;;;;;;;0.50;0.30;;;12.20;99.90;;;;;;4996091;28;20210;-89
2023/04/08 00:51:21;;;;;;;1.40;0.50;;;12.10;99.90;;;;;;4998038;28;20269;-89
2023/04/08 00:53:52;;;;;;;2.20;0.40;;;11.90;99.90;;;;;;4997757;28;20268;-89
2023/04/08 00:56:24;;;;;;;0.40;0.20;;;12.00;99.90;;;;;;5002433;28;20214;-88
2023/04/08 00:58:58;;;;;;;0.60;0.30;;;11.80;99.90;;;;;;5007584;28;20317;-89
2023/04/08 01:01:39;;;;;;;1.10;0.47;;;11.80;99.90;;;;;;4997117;28;20202;-88
2023/04/08 01:04:23;;;;;;;0.73;0.30;;;11.70;99.90;;;;;;4998547;28;20309;-89
2023/04/08 01:07:02;;;;;;;0.30;0.30;;;11.60;99.90;;;;;;4998193;28;20214;-87
2023/04/08 01:09:37;;;;;;;1.23;0.57;;;11.40;99.90;;;;;;4999648;28;20211;-89
2023/04/08 01:12:12;;;;;;;1.07;0.50;;;11.50;99.90;;;;;;5014506;28;20206;-93
2023/04/08 01:14:50;;;;;;;0.40;0.40;;;11.40;99.90;;;;;;5011886;28;20201;-87
2023/04/08 01:17:22;;;;;;;1.50;0.50;;;11.50;99.90;;;;;;5001659;28;20619;-89
2023/04/08 01:19:58;;;;;;;2.07;0.60;;;11.60;99.90;;;;;;4999419;28;20268;-88
2023/04/08 01:22:38;;;;;;;1.87;0.60;;;11.60;99.90;;;;;;4997146;28;20224;-94
2023/04/08 01:25:17;;;;;;;1.13;0.40;;;11.70;99.90;;;;;;4998080;28;20641;-90
2023/04/08 01:27:52;;;;;;;1.03;0.40;;;11.50;99.90;;;;;;5003254;28;20201;-93
2023/04/08 01:30:27;;;;;;;1.90;0.70;;;11.30;99.90;;;;;;5002215;28;20210;-91
2023/04/08 01:33:01;;;;;;;1.63;0.50;;;11.40;99.90;;;;;;4992623;28;20234;-92
2023/04/08 01:35:34;;;;;;;1.10;0.43;;;11.30;99.90;;;;;;4993208;28;20226;-91
2023/04/08 01:38:09;;;;;;;4.97;2.27;;;11.30;99.90;;;;;;5007567;28;20230;-91
2023/04/08 01:40:44;;;;;;;1.30;0.70;;;11.20;99.90;;;;;;5003733;28;20297;-95
2023/04/08 01:43:18;;;;;;;1.33;0.50;;;11.10;99.90;;;;;;5005740;28;20210;-93
2023/04/08 01:45:56;;;;;;;0.73;0.40;;;11.00;99.90;;;;;;4998520;28;20216;-94
2023/04/08 01:48:33;;;;;;;2.33;0.50;;;11.00;99.90;;;;;;5018540;28;20238;-96
2023/04/08 01:51:06;;;;;;;1.60;0.50;;;11.00;99.90;;;;;;4997246;28;20202;-96
2023/04/08 01:56:30;;;;;;;1.30;0.60;;;10.50;99.90;;;;;;4990001;28;20229;-86
2023/04/08 01:59:06;;;;;;;0.47;0.40;;;10.50;99.90;;;;;;4987664;28;20925;-91
2023/04/08 02:01:40;;;;;;;0.87;0.53;;;10.30;99.90;;;;;;4996164;28;20210;-90
2023/04/08 02:04:12;;;;;;;1.23;0.60;;;10.30;99.90;;;;;;4996081;28;20218;-90
2023/04/08 02:06:44;;;;;;;1.30;0.60;;;10.10;99.90;;;;;;4996720;28;20203;-88
2023/04/08 02:09:16;;;;;;;1.17;0.40;;;10.00;99.90;;;;;;5008835;28;20214;-90
2023/04/08 02:11:47;;;;;;;1.87;0.70;;;9.90;99.90;;;;;;4997703;28;20237;-93
2023/04/08 02:14:21;;;;;;;3.23;0.57;;;9.90;99.90;;;;;;4992082;28;20223;-91
2023/04/08 02:16:56;;;;;;;0.93;0.50;;;9.90;99.90;;;;;;4994120;28;20304;-90
2023/04/08 02:19:30;;;;;;;1.30;0.50;;;9.80;99.90;;;;;;4995557;28;20214;-91
2023/04/08 02:22:09;;;;;;;1.57;0.40;;;9.70;99.90;;;;;;5007755;28;20202;-91
2023/04/08 02:24:41;;;;;;;0.83;0.30;;;9.70;99.90;;;;;;5002191;28;20241;-91
2023/04/08 02:27:14;;;;;;;0.50;0.40;;;9.60;99.90;;;;;;5001348;28;20217;-93
2023/04/08 02:29:58;;;;;;;1.83;0.60;;;9.50;99.90;;;;;;5009630;28;20205;-95
2023/04/08 02:32:40;;;;;;;1.53;0.50;;;9.40;99.90;;;;;;5006896;28;20198;-94
2023/04/08 02:35:15;;;;;;;1.47;0.50;;;9.40;99.90;;;;;;5007410;28;20226;-93
2023/04/08 02:37:48;;;;;;;1.97;0.40;;;9.40;99.90;;;;;;4995716;28;20276;-95
2023/04/08 02:40:28;;;;;;;1.53;0.50;;;9.30;99.90;;;;;;4998470;28;20242;-93
2023/04/08 02:43:00;;;;;;;0.73;0.60;;;9.30;99.90;;;;;;5002121;28;20466;-93
2023/04/08 02:45:47;;;;;;;2.20;0.40;;;9.20;99.90;;;;;;4664109;28;9999734;-92
2023/04/08 02:48:18;;;;;;;1.53;0.70;;;9.20;99.90;;;;;;5001745;28;20208;-96
2023/04/08 02:50:52;;;;;;;3.27;0.63;;;9.10;99.90;;;;;;5018532;28;20294;-96
2023/04/08 02:53:24;;;;;;;2.87;0.50;;;9.10;99.90;;;;;;5023659;28;20232;-96
2023/04/08 02:56:11;;;;;;;1.03;0.50;;;9.00;99.90;;;;;;5013123;28;20201;-95
2023/04/08 02:58:42;;;;;;;2.30;0.57;;;8.90;99.90;;;;;;5015063;28;20231;-94
2023/04/08 03:01:16;;;;;;;0.93;0.50;;;8.90;99.90;;;;;;4998531;28;20239;-96
2023/04/08 03:03:47;;;;;;;0.83;0.47;;;8.80;99.90;;;;;;5001104;28;20666;-95
2023/04/08 03:06:20;;;;;;;1.90;0.60;;;8.80;99.90;;;;;;5003545;28;20198;-95
2023/04/08 03:08:52;;;;;;;0.87;0.50;;;8.70;99.90;;;;;;4988318;28;20244;-94
2023/04/08 03:11:23;;;;;;;1.00;0.53;;;8.70;99.90;;;;;;4983969;28;20221;-95
2023/04/08 03:13:54;;;;;;;1.53;0.40;;;8.60;99.90;;;;;;5001967;28;20202;-96
2023/04/08 03:16:28;;;;;;;1.77;0.60;;;8.60;99.90;;;;;;5029856;28;20205;-96
2023/04/08 03:18:59;;;;;;;1.47;0.53;;;8.60;99.90;;;;;;5035313;28;20201;-96
2023/04/08 03:21:31;;;;;;;1.67;0.60;;;8.50;99.90;;;;;;4992857;28;20241;-96
2023/04/08 03:24:02;;;;;;;0.70;0.50;;;8.50;99.90;;;;;;5018687;28;20218;-93
2023/04/08 03:26:33;;;;;;;2.03;0.80;;;8.40;99.90;;;;;;5015733;28;20218;-93
2023/04/08 03:29:05;;;;;;;2.33;0.93;;;8.40;99.90;;;;;;5006209;28;20269;-95
2023/04/08 03:31:39;;;;;;;2.57;0.50;;;8.40;99.90;;;;;;4997152;28;20236;-95
2023/04/08 03:34:12;;;;;;;1.37;0.50;;;8.30;99.90;;;;;;4997551;28;20220;-94
2023/04/08 03:36:43;;;;;;;0.40;0.40;;;8.30;99.90;;;;;;4997105;28;20206;-95
2023/04/08 03:39:15;;;;;;;0.83;0.47;;;8.30;99.90;;;;;;4987427;28;20211;-93
2023/04/08 03:41:46;;;;;;;0.57;0.40;;;8.30;99.90;;;;;;4976184;28;20263;-91
2023/04/08 03:44:17;;;;;;;2.50;0.60;;;8.30;99.90;;;;;;4990253;28;20670;-89
2023/04/08 03:46:50;;;;;;;2.07;0.50;;;8.20;99.90;;;;;;4995907;28;20277;-90
2023/04/08 03:49:21;;;;;;;1.30;0.50;;;8.20;99.90;;;;;;4986864;28;20222;-90
2023/04/08 03:51:52;;;;;;;1.60;0.40;;;8.10;99.90;;;;;;4994221;28;20218;-91
2023/04/08 03:54:23;;;;;;;0.80;0.40;;;8.10;99.90;;;;;;5006793;28;20290;-90
2023/04/08 03:56:54;;;;;;;1.87;0.60;;;8.10;99.90;;;;;;4997914;28;20214;-90
2023/04/08 03:59:25;;;;;;;2.03;0.63;;;8.00;99.90;;;;;;4997177;28;20258;-90
2023/04/08 04:01:58;;;;;;;1.47;0.70;;;8.00;99.90;;;;;;5011830;28;20222;-90
2023/04/08 04:04:28;;;;;;;0.97;0.70;;;8.00;99.90;;;;;;5008672;28;20194;-90
2023/04/08 04:07:00;;;;;;;0.97;0.60;;;7.90;99.90;;;;;;5003176;28;20222;-87
2023/04/08 04:09:31;;;;;;;1.63;0.50;;;8.00;99.90;;;;;;4994747;28;20571;-86
2023/04/08 04:12:02;;;;;;;0.97;0.67;;;7.90;99.90;;;;;;5011114;28;20226;-86
2023/04/08 04:14:32;;;;;;;1.40;0.70;;;7.90;99.90;;;;;;4987443;28;20230;-87
2023/04/08 04:17:05;;;;;;;1.23;0.63;;;7.90;99.90;;;;;;4986398;28;20218;-88
2023/04/08 04:19:37;;;;;;;1.13;0.60;;;7.90;99.90;;;;;;4988678;28;20207;-86
2023/04/08 04:22:07;;;;;;;1.30;0.57;;;7.90;99.90;;;;;;4989381;28;20223;-86
2023/04/08 04:24:39;;;;;;;0.90;0.60;;;7.90;99.90;;;;;;4980640;28;20206;-86
2023/04/08 04:27:10;;;;;;;1.07;0.70;;;7.80;99.90;;;;;;4993347;28;20222;-87
2023/04/08 04:29:41;;;;;;;0.83;0.70;;;7.80;99.90;;;;;;4983371;28;20206;-87
2023/04/08 04:32:14;;;;;;;3.10;0.67;;;7.90;99.90;;;;;;4982355;28;20211;-87
2023/04/08 04:34:46;;;;;;;1.60;0.57;;;7.90;99.90;;;;;;4982287;28;20203;-87
2023/04/08 04:37:17;;;;;;;1.33;0.63;;;7.90;99.90;;;;;;4991264;28;20563;-87
2023/04/08 04:39:48;;;;;;;1.40;0.60;;;7.90;99.90;;;;;;4985485;28;20272;-86
2023/04/08 04:42:20;;;;;;;1.70;0.53;;;7.90;99.90;;;;;;4980922;28;20241;-86
2023/04/08 04:44:52;;;;;;;1.77;0.77;;;7.90;99.90;;;;;;4992721;28;20257;-86
2023/04/08 04:47:26;;;;;;;6.00;0.90;;;7.90;99.90;;;;;;5003193;28;20210;-88
2023/04/08 04:49:57;;;;;;;2.17;0.77;;;8.00;99.90;;;;;;4985510;28;20223;-87
2023/04/08 04:52:29;;;;;;;1.27;0.70;;;8.00;99.90;;;;;;4978708;28;20206;-86
2023/04/08 04:54:59;;;;;;;1.77;0.77;;;8.00;99.90;;;;;;5000686;28;20206;-87
2023/04/08 04:57:31;;;;;;;7.47;0.90;;;8.00;99.90;;;;;;4995278;28;20257;-87
2023/04/08 05:00:02;;;;;;;1.60;0.63;;;8.00;99.90;;;;;;4996475;28;20264;-88
2023/04/08 05:02:36;;;;;;;2.60;0.70;;;8.00;99.90;;;;;;4995446;28;20248;-86
2023/04/08 05:05:08;;;;;;;1.27;0.60;;;7.90;99.90;;;;;;4983445;28;20202;-87
2023/04/08 05:07:40;;;;;;;0.70;0.47;;;7.90;99.90;;;;;;4983401;28;20254;-86
2023/04/08 05:10:11;;;;;;;1.37;0.60;;;7.80;99.90;;;;;;4985326;28;20214;-87
2023/04/08 05:12:43;;;;;;;1.83;0.70;;;7.80;99.90;;;;;;4993439;28;20195;-87
2023/04/08 05:15:15;;;;;;;1.03;0.60;;;7.80;99.90;;;;;;4997007;28;20210;-87
2023/04/08 05:17:48;;;;;;;2.20;0.50;;;7.70;99.90;;;;;;4989415;28;20206;-87
2023/04/08 05:20:19;;;;;;;0.63;0.50;;;7.70;99.90;;;;;;4991011;28;20298;-86
2023/04/08 05:22:51;;;;;;;1.20;0.67;;;7.70;99.90;;;;;;4990716;28;20233;-87
2023/04/08 05:25:22;;;;;;;1.23;0.53;;;7.60;99.90;;;;;;5006628;28;20220;-87
2023/04/08 05:27:53;;;;;;;0.97;0.60;;;7.60;99.90;;;;;;4993517;28;20210;-87
2023/04/08 05:30:25;;;;;;;0.53;0.50;;;7.60;99.90;;;;;;4989647;28;20251;-86
2023/04/08 05:32:58;;;;;;;1.50;0.70;;;7.60;99.90;;;;;;4999280;28;20206;-88
2023/04/08 05:35:30;;;;;;;1.47;0.60;;;7.50;99.90;;;;;;5030018;28;20308;-86
2023/04/08 05:38:01;;;;;;;2.00;0.73;;;7.40;99.90;;;;;;5011669;28;20203;-87
2023/04/08 05:40:32;;;;;;;1.57;0.70;;;7.40;99.90;;;;;;4996992;28;20207;-88
2023/04/08 05:43:04;;;;;;;0.50;0.50;;;7.50;99.90;;;;;;4985076;28;20229;-88
2023/04/08 05:45:35;;;;;;;0.53;0.50;;;7.50;99.90;;;;;;4995016;28;20245;-94
2023/04/08 05:48:10;;;;;;;2.27;0.90;;;7.40;99.90;;;;;;4980856;28;20691;-88
2023/04/08 05:50:41;;;;;;;2.93;0.73;;;7.40;99.90;;;;;;4991414;28;20202;-88
2023/04/08 05:53:13;;;;;;;0.97;0.60;;;7.50;99.90;;;;;;4977125;28;20219;-87
2023/04/08 05:55:43;;;;;;;1.37;0.50;;;7.50;99.90;;;;;;4980325;28;20203;-87
2023/04/08 05:58:15;;;;;;;4.40;0.70;;;7.50;99.90;;;;;;4996568;28;20206;-86
2023/04/08 06:00:46;;;;;;;3.70;0.73;;;7.50;99.90;;;;;;4991200;28;20234;-86
2023/04/08 06:03:19;;;;;;;1.00;0.80;;;7.50;99.90;;;;;;4997431;28;20243;-87
2023/04/08 06:05:52;;;;;;;4.50;0.60;;;7.60;99.90;;;;;;5000300;28;20316;-87
2023/04/08 06:08:23;;;;;;;2.73;0.73;;;7.60;99.90;;;;;;4996741;28;20293;-88
2023/04/08 06:10:55;;;;;;;3.57;0.63;;;7.60;99.90;;;;;;4995207;28;20229;-92
2023/04/08 06:13:27;;;;;;;2.40;0.60;;;7.70;99.90;;;;;;4978174;28;20207;-87
2023/04/08 06:15:58;;;;;;;3.90;1.00;;;7.70;99.90;;;;;;4996176;28;20206;-88
2023/04/08 06:18:31;;;;;;;3.83;0.93;;;7.80;99.90;;;;;;4996716;28;20300;-87
2023/04/08 06:21:03;;;;;;;1.17;0.70;;;7.70;99.90;;;;;;4996282;28;20202;-86
2023/04/08 06:23:35;;;;;;;1.33;0.80;;;7.80;99.90;;;;;;4989162;28;20249;-86
2023/04/08 06:26:06;;;;;;;0.70;0.50;;;7.80;99.90;;;;;;4995950;28;20726;-87
2023/04/08 06:28:38;;;;;;;3.50;0.60;;;7.80;99.90;;;;;;5003256;28;20209;-88
2023/04/08 06:31:09;;;;;;;1.77;0.90;;;7.80;99.90;;;;;;5004409;28;20206;-87
2023/04/08 06:33:43;;;;;;;2.07;0.60;;;7.80;99.90;;;;;;4995867;28;20210;-87
2023/04/08 06:36:14;;;;;;;2.53;0.90;;;7.80;99.90;;;;;;4995977;28;20206;-86
2023/04/08 06:38:45;;;;;;;1.33;0.73;;;7.80;99.90;;;;;;4997504;28;20260;-86
2023/04/08 06:41:16;;;;;;;1.77;0.83;;;7.80;99.90;;;;;;4988178;28;20211;-88
2023/04/08 06:43:46;;;;;;;2.43;0.90;;;7.80;99.90;;;;;;4976623;28;20300;-85
2023/04/08 06:46:18;;;;;;;2.47;0.90;;;7.80;99.90;;;;;;4995012;28;20237;-86
2023/04/08 06:48:51;;;;;;;1.43;0.60;;;7.80;99.90;;;;;;4994610;28;20210;-86
2023/04/08 06:51:22;;;;;;;1.03;0.70;;;7.80;99.90;;;;;;4994487;28;20258;-86
2023/04/08 06:53:54;;;;;;;2.70;0.90;;;7.80;99.90;;;;;;4992014;28;20202;-86
2023/04/08 06:56:25;;;;;;;2.87;1.10;;;7.80;99.90;;;;;;4994924;28;20257;-84
2023/04/08 06:58:56;;;;;;;1.63;0.70;;;7.80;99.90;;;;;;4980787;28;20222;-87
2023/04/08 07:01:27;;;;;;;2.07;0.77;;;7.80;99.90;;;;;;4995737;28;20293;-86
2023/04/08 07:04:01;;;;;;;4.57;0.87;;;7.90;99.90;;;;;;4991453;28;20226;-87
2023/04/08 07:06:33;;;;;;;1.30;0.60;;;7.90;99.90;;;;;;4995903;28;20265;-84
2023/04/08 07:09:05;;;;;;;2.20;0.70;;;7.90;99.90;;;;;;4979745;28;20199;-86
2023/04/08 07:11:36;;;;;;;0.77;0.53;;;7.90;99.90;;;;;;4982457;28;20276;-87
2023/04/08 07:14:07;;;;;;;1.50;0.60;;;7.90;99.90;;;;;;4985606;28;20722;-86
2023/04/08 07:16:38;;;;;;;2.03;1.07;;;7.80;99.90;;;;;;4977357;28;20211;-86
2023/04/08 07:19:11;;;;;;;3.33;0.87;;;7.80;99.90;;;;;;4992292;28;20702;-86
2023/04/08 07:21:42;;;;;;;3.70;0.87;;;7.80;99.90;;;;;;4994748;28;20202;-86
2023/04/08 07:24:13;;;;;;;2.37;0.90;;;7.80;99.90;;;;;;4996399;28;20256;-86
2023/04/08 07:26:45;;;;;;;1.37;0.53;;;7.70;99.90;;;;;;4994997;28;20221;-86
2023/04/08 07:29:17;;;;;;;2.47;1.00;;;7.70;99.90;;;;;;4994488;28;20260;-87
2023/04/08 07:31:47;;;;;;;4.67;0.60;;;7.70;99.90;;;;;;4989476;28;20246;-87
2023/04/08 07:34:21;;;;;;;2.97;0.87;;;7.70;99.90;;;;;;4982970;28;20299;-86
2023/04/08 07:36:52;;;;;;;2.57;1.00;;;7.70;99.90;;;;;;4985188;28;20225;-86
2023/04/08 07:39:24;;;;;;;2.90;0.80;;;7.70;99.90;;;;;;4982190;28;20687;-85
2023/04/08 07:41:56;;;;;;;1.13;0.70;;;7.70;99.90;;;;;;4999849;28;20230;-86
2023/04/08 07:44:27;;;;;;;1.67;0.77;;;7.70;99.90;;;;;;4985663;28;20230;-86
2023/04/08 07:46:58;;;;;;;3.47;0.80;;;7.70;99.90;;;;;;5001107;28;20689;-86
2023/04/08 07:49:31;;;;;;;4.97;0.93;;;7.70;99.90;;;;;;4988490;28;20253;-85
2023/04/08 07:52:02;;;;;;;3.53;0.90;;;7.70;99.90;;;;;;4978906;28;20207;-87
2023/04/08 07:54:34;;;;;;;2.00;0.90;;;7.70;99.90;;;;;;4981509;28;20221;-85
2023/04/08 07:57:05;;;;;;;1.80;0.93;;;7.70;99.90;;;;;;4987943;28;20659;-87
2023/04/08 07:59:36;;;;;;;2.70;0.90;;;7.70;99.90;;;;;;4991166;28;20214;-87
2023/04/08 08:02:08;;;;;;;3.40;1.07;;;7.60;99.90;;;;;;4980086;28;20199;-86
2023/04/08 08:04:41;;;;;;;1.33;0.70;;;7.60;99.90;;;;;;4974569;28;20238;-86
2023/04/08 08:07:12;;;;;;;1.80;0.70;;;7.60;99.90;;;;;;4999035;28;20206;-86
2023/04/08 08:09:43;;;;;;;2.13;0.73;;;7.60;99.90;;;;;;4988048;28;20198;-86
2023/04/08 08:12:14;;;;;;;3.47;0.80;;;7.60;99.90;;;;;;4986588;28;20222;-87
2023/04/08 08:14:45;;;;;;;4.27;0.90;;;7.60;99.90;;;;;;4993361;28;20667;-86
2023/04/08 08:17:16;;;;;;;3.27;0.97;;;7.60;99.90;;;;;;4991106;28;20613;-87
2023/04/08 08:19:49;;;;;;;2.47;1.00;;;7.60;99.90;;;;;;4997099;28;20217;-86
2023/04/08 08:22:20;;;;;;;4.53;1.30;;;7.60;99.90;;;;;;4997910;28;20678;-86
2023/04/08 08:24:56;;;;;;;3.03;1.00;;;7.60;99.90;;;;;;4997869;28;20213;-86
2023/04/08 08:27:28;;;;;;;2.30;1.20;;;7.60;99.90;;;;;;4996584;28;20663;-85
2023/04/08 08:29:59;;;;;;;1.73;0.90;;;7.60;99.90;;;;;;4980242;28;20238;-87
2023/04/08 08:32:31;;;;;;;2.23;1.30;;;7.60;99.90;;;;;;4978449;28;20210;-87
2023/04/08 08:35:04;;;;;;;4.57;1.10;;;7.60;99.90;;;;;;4981714;28;20210;-86
2023/04/08 08:37:35;;;;;;;1.10;0.87;;;7.70;99.90;;;;;;4997152;28;20257;-86
2023/04/08 08:40:07;;;;;;;3.53;1.40;;;7.70;99.90;;;;;;4996321;28;20258;-86
2023/04/08 08:42:40;;;;;;;3.30;1.07;;;7.70;99.90;;;;;;4989618;28;20254;-86
2023/04/08 08:45:11;;;;;;;1.80;1.10;;;7.70;99.90;;;;;;5005671;28;20209;-87
2023/04/08 08:47:43;;;;;;;1.93;0.90;;;7.70;99.90;;;;;;4991038;28;20206;-86
2023/04/08 08:50:15;;;;;;;3.50;1.30;;;7.70;99.90;;;;;;5005403;28;20309;-86
2023/04/08 08:52:51;;;;;;;2.10;1.00;;;7.70;99.90;;;;;;5008445;28;20209;-86
2023/04/08 08:55:22;;;;;;;3.13;1.20;;;7.60;99.90;;;;;;4996897;28;20206;-86
2023/04/08 08:58:14;;;;;;;1.93;1.10;;;7.60;99.90;;;;;;4978623;28;20215;-86
2023/04/08 09:00:45;;;;;;;2.17;1.07;;;7.70;99.90;;;;;;4983531;28;20215;-86
2023/04/08 09:03:17;;;;;;;1.60;0.90;;;7.70;99.90;;;;;;4995942;28;20238;-86
2023/04/08 09:05:55;;;;;;;1.33;0.80;;;7.60;99.90;;;;;;4991470;28;20631;-87
2023/04/08 09:08:31;;;;;;;1.83;0.93;;;7.60;99.90;;;;;;4976952;28;20214;-86
2023/04/08 09:11:16;;;;;;;3.60;1.20;;;7.60;99.90;;;;;;4977392;28;20214;-86
2023/04/08 09:13:47;;;;;;;2.40;0.90;;;7.60;99.90;;;;;;4977666;28;20583;-87
2023/04/08 09:16:22;;;;;;;1.87;0.90;;;7.60;99.90;;;;;;4977537;28;20214;-86
2023/04/08 09:18:53;;;;;;;2.60;1.03;;;7.60;99.90;;;;;;4977364;28;20217;-86
2023/04/08 09:21:27;;;;;;;3.20;0.90;;;7.60;99.90;;;;;;4997286;28;20622;-86
2023/04/08 09:23:58;;;;;;;7.23;1.00;;;7.60;99.90;;;;;;5001091;28;20229;-86
2023/04/08 09:26:29;;;;;;;4.10;1.20;;;7.60;99.90;;;;;;4996956;28;20297;-87
2023/04/08 09:29:01;;;;;;;4.30;1.20;;;7.60;99.90;;;;;;4995425;28;20260;-86
2023/04/08 09:31:57;;;;;;;3.23;1.17;;;7.60;99.90;;;;;;4996588;28;20726;-86
2023/04/08 09:34:31;;;;;;;2.13;1.00;;;7.60;99.90;;;;;;4996764;28;20237;-87
2023/04/08 09:37:03;;;;;;;3.13;1.20;;;7.60;99.90;;;;;;4993896;28;20202;-86
2023/04/08 09:39:34;;;;;;;1.40;1.00;;;7.50;99.90;;;;;;4980726;28;20239;-87
2023/04/08 09:42:10;;;;;;;2.13;0.80;;;7.50;99.90;;;;;;4996592;28;20229;-85
2023/04/08 09:44:43;;;;;;;3.63;0.90;;;7.60;99.90;;;;;;5017450;28;20317;-86
2023/04/08 09:47:21;;;;;;;2.93;1.07;;;7.60;99.90;;;;;;5004110;28;20210;-86
2023/04/08 09:49:56;;;;;;;2.13;0.93;;;7.60;99.90;;;;;;4993063;28;20219;-86
2023/04/08 09:52:34;;;;;;;2.43;1.10;;;7.60;99.90;;;;;;5002004;28;20293;-85
2023/04/08 09:55:09;;;;;;;3.60;0.70;;;7.60;99.90;;;;;;4995536;28;20260;-87
2023/04/08 09:57:43;;;;;;;2.17;0.93;;;7.60;99.90;;;;;;4999637;28;20205;-86
2023/04/08 10:00:15;;;;;;;2.93;0.83;;;7.60;99.90;;;;;;4977859;28;20675;-86
2023/04/08 10:02:55;;;;;;;4.77;1.10;;;7.60;99.90;;;;;;4977431;28;20215;-84
2023/04/08 10:05:28;;;;;;;3.43;1.20;;;7.60;99.90;;;;;;4995561;28;20245;-87
2023/04/08 10:08:01;;;;;;;3.70;1.20;;;7.60;99.90;;;;;;4998640;28;20450;-85
2023/04/08 10:10:33;;;;;;;2.07;1.00;;;7.60;99.90;;;;;;5002232;28;20214;-86
2023/04/08 10:13:04;;;;;;;1.97;0.90;;;7.60;99.90;;;;;;4995335;28;20198;-87
2023/04/08 10:15:38;;;;;;;4.40;1.00;;;7.60;99.90;;;;;;4996462;28;20222;-84
2023/04/08 10:18:35;;;;;;;1.73;0.90;;;7.60;99.90;;;;;;4994414;28;20667;-86
2023/04/08 10:21:06;;;;;;;2.70;0.70;;;7.60;99.90;;;;;;4995651;28;20272;-86
2023/04/08 10:24:07;;;;;;;1.73;0.77;;;7.60;99.90;;;;;;4995521;28;20210;-87
2023/04/08 10:26:40;;;;;;;2.30;1.13;;;7.60;99.90;;;;;;4952808;28;20273;-87
2023/04/08 10:29:37;;;;;;;1.37;0.77;;;7.60;99.90;;;;;;4992194;28;20294;-87
2023/04/08 10:32:08;;;;;;;1.97;0.60;;;7.60;99.90;;;;;;4943804;28;20217;-87
2023/04/08 10:34:54;;;;;;;4.50;0.80;;;7.60;99.90;;;;;;4975958;28;20207;-86
2023/04/08 10:37:28;;;;;;;1.10;0.70;;;7.60;99.90;;;;;;4975206;28;20676;-86
2023/04/08 10:40:01;;;;;;;2.77;0.97;;;7.50;99.90;;;;;;4989639;28;20214;-87
2023/04/08 10:42:32;;;;;;;1.47;0.80;;;7.50;99.90;;;;;;4994211;28;20257;-86
2023/04/08 10:45:04;;;;;;;3.60;0.70;;;7.60;99.90;;;;;;4995181;28;20229;-86
2023/04/08 10:47:34;;;;;;;1.83;0.87;;;7.50;99.90;;;;;;4993799;28;20217;-87
2023/04/08 10:50:14;;;;;;;1.93;1.00;;;7.50;99.90;;;;;;4990120;28;20268;-86
2023/04/08 10:52:48;;;;;;;2.63;0.83;;;7.60;99.90;;;;;;4995140;28;20205;-86
2023/04/08 10:55:25;;;;;;;2.67;0.77;;;7.60;99.90;;;;;;5002746;28;20209;-86
2023/04/08 10:57:56;;;;;;;4.40;1.27;;;7.60;99.90;;;;;;4998433;28;20206;-86
2023/04/08 11:00:34;;;;;;;1.97;0.83;;;7.60;99.90;;;;;;4994311;28;20297;-87
2023/04/08 11:03:07;;;;;;;2.00;1.03;;;7.70;99.90;;;;;;4995707;28;20281;-87
2023/04/08 11:05:39;;;;;;;1.87;0.93;;;7.70;99.90;;;;;;4985569;28;20278;-86
2023/04/08 11:08:09;;;;;;;2.40;0.80;;;7.70;99.90;;;;;;5013185;28;20689;-86
2023/04/08 11:10:43;;;;;;;1.63;0.90;;;7.70;99.90;;;;;;4975109;28;20206;-86
2023/04/08 11:13:15;;;;;;;2.53;0.67;;;7.80;99.90;;;;;;4975563;28;20210;-85
2023/04/08 11:15:47;;;;;;;3.27;0.90;;;7.80;99.90;;;;;;4990226;28;20667;-87
2023/04/08 11:18:19;;;;;;;1.30;0.77;;;7.80;99.90;;;;;;4993340;28;20595;-86
2023/04/08 11:20:52;;;;;;;1.07;0.77;;;7.70;99.90;;;;;;4994582;28;20218;-86
2023/04/08 11:23:25;;;;;;;1.07;0.90;;;7.70;99.90;;;;;;4994029;28;20214;-84
2023/04/08 11:25:58;;;;;;;3.63;1.10;;;7.70;99.90;;;;;;5011847;28;20229;-86
2023/04/08 11:28:31;;;;;;;2.50;0.90;;;7.70;99.90;;;;;;5010567;28;20674;-86
2023/04/08 11:31:03;;;;;;;3.27;0.80;;;7.60;99.90;;;;;;4994242;28;20214;-86
2023/04/08 11:33:35;;;;;;;3.70;0.90;;;7.60;99.90;;;;;;4993859;28;20206;-85
2023/04/08 11:36:07;;;;;;;1.87;0.97;;;7.60;99.90;;;;;;4994441;28;20206;-86
2023/04/08 11:38:41;;;;;;;2.80;0.70;;;7.60;99.90;;;;;;4993337;28;20209;-86
2023/04/08 11:41:13;;;;;;;1.43;0.77;;;7.60;99.90;;;;;;4994611;28;20226;-86
2023/04/08 11:43:54;;;;;;;2.63;1.07;;;7.60;99.90;;;;;;4997447;28;20203;-86
2023/04/08 11:46:26;;;;;;;2.00;0.80;;;7.60;99.90;;;;;;4994424;28;20329;-87
2023/04/08 11:49:05;;;;;;;1.93;0.80;;;7.50;99.90;;;;;;4994844;28;20252;-87
2023/04/08 11:51:53;;;;;;;3.00;1.00;;;7.50;99.90;;;;;;4989667;28;20206;-86
2023/04/08 11:54:30;;;;;;;1.43;0.80;;;7.50;99.90;;;;;;4992219;28;20214;-86
2023/04/08 11:57:03;;;;;;;1.83;0.90;;;7.50;99.90;;;;;;4978569;28;20277;-86
2023/04/08 11:59:35;;;;;;;2.67;0.80;;;7.50;99.90;;;;;;4989381;28;20213;-87
2023/04/08 12:02:06;;;;;;;1.77;0.93;;;7.50;99.90;;;;;;4997820;28;20202;-86
2023/04/08 12:04:38;;;;;;;3.13;1.40;;;7.50;99.90;;;;;;4997763;28;20217;-86
2023/04/08 12:07:09;;;;;;;1.63;0.80;;;7.50;99.90;;;;;;4997983;28;20253;-86
2023/04/08 12:09:40;;;;;;;3.13;1.03;;;7.50;99.90;;;;;;5012361;28;20209;-86
2023/04/08 12:12:13;;;;;;;1.67;0.80;;;7.50;99.90;;;;;;5005773;28;20252;-85
2023/04/08 12:14:44;;;;;;;1.87;0.83;;;7.50;99.90;;;;;;4998021;28;20211;-86
2023/04/08 12:17:14;;;;;;;1.10;0.80;;;7.50;99.90;;;;;;4997689;28;20213;-87
2023/04/08 12:19:47;;;;;;;1.83;0.97;;;7.50;99.90;;;;;;4996937;28;20272;-85
2023/04/08 12:22:17;;;;;;;3.03;0.80;;;7.40;99.90;;;;;;4997907;28;20214;-86
2023/04/08 12:24:49;;;;;;;2.20;0.80;;;7.40;99.90;;;;;;4998391;28;20236;-88
2023/04/08 12:27:21;;;;;;;1.47;1.03;;;7.40;99.90;;;;;;5005618;28;20257;-86
2023/04/08 12:29:52;;;;;;;2.57;1.17;;;7.40;99.90;;;;;;4978382;28;20758;-86
2023/04/08 12:32:24;;;;;;;1.40;0.90;;;7.40;99.90;;;;;;4978221;28;20215;-87
2023/04/08 12:34:56;;;;;;;2.67;0.80;;;7.40;99.90;;;;;;4989497;28;20268;-88
2023/04/08 12:37:26;;;;;;;4.03;1.20;;;7.40;99.90;;;;;;4995981;28;20202;-86
2023/04/08 12:39:57;;;;;;;3.73;0.90;;;7.40;99.90;;;;;;4981274;28;20376;-86
2023/04/08 12:42:30;;;;;;;1.77;1.00;;;7.40;99.90;;;;;;4979206;28;20262;-86
2023/04/08 12:45:01;;;;;;;1.83;0.80;;;7.40;99.90;;;;;;5016702;28;20206;-87
2023/04/08 12:47:33;;;;;;;2.57;1.00;;;7.50;99.90;;;;;;5011916;28;20203;-87
2023/04/08 12:50:05;;;;;;;3.20;0.80;;;7.50;99.90;;;;;;4997538;28;20301;-85
2023/04/08 12:52:36;;;;;;;3.00;0.80;;;7.50;99.90;;;;;;5007831;28;20210;-86
2023/04/08 12:55:08;;;;;;;2.60;0.97;;;7.60;99.90;;;;;;5009017;28;20960;-87
2023/04/08 12:57:41;;;;;;;2.80;0.93;;;7.60;99.90;;;;;;4996082;28;20202;-87
2023/04/08 13:00:13;;;;;;;1.53;1.07;;;7.60;99.90;;;;;;4997163;28;20210;-87
2023/04/08 13:02:44;;;;;;;2.10;0.90;;;7.60;99.90;;;;;;4995833;28;20202;-86
2023/04/08 13:05:16;;;;;;;2.53;0.87;;;7.60;99.90;;;;;;5014841;28;20574;-85
2023/04/08 13:07:59;;;;;;;1.03;0.73;;;7.60;99.90;;;;;;5015893;28;20202;-87
2023/04/08 13:10:29;;;;;;;2.40;0.90;;;7.60;99.90;;;;;;5004019;28;20205;-86
2023/04/08 13:13:02;;;;;;;4.10;0.90;;;7.60;99.90;;;;;;5016527;28;20209;-86
2023/04/08 13:15:34;;;;;;;1.90;1.13;;;7.60;99.90;;;;;;4979606;28;20278;-85
2023/04/08 13:18:05;;;;;;;4.07;1.00;;;7.60;99.90;;;;;;4997602;28;20210;-86
2023/04/08 13:20:36;;;;;;;2.30;0.80;;;7.70;99.90;;;;;;5015994;28;20221;-86
2023/04/08 13:23:06;;;;;;;2.57;1.00;;;7.60;99.90;;;;;;5016363;28;20217;-86
2023/04/08 13:25:37;;;;;;;2.60;1.20;;;7.60;99.90;;;;;;5016284;28;20288;-84
2023/04/08 13:28:10;;;;;;;2.43;1.17;;;7.70;99.90;;;;;;5014955;28;20302;-86